Time;durP1;ratioP1;P1;durP2;ratioP2;P2;SDS_P1;SDS_P2;PMS_P1;PMS_P2;Temp;Humidity;BMP_temperature;BMP_pressure;BME280_temperature;BME280_humidity;BME280_pressure;Samples;Min_cycle;Max_cycle;Signal;HPM_P1;HPM_P2
2022/01/24 00:00:50;;;;;;;7.68;7.07;;;;;;;-3.18;64.97;95529.03;5076056;28;20200;-66
2022/01/24 00:03:17;;;;;;;7.22;6.63;;;;;;;-3.22;64.78;95532.50;5076698;28;20196;-66
2022/01/24 00:05:45;;;;;;;7.22;6.70;;;;;;;-3.25;65.25;95525.72;5076025;28;20205;-64
2022/01/24 00:08:12;;;;;;;7.25;6.65;;;;;;;-3.24;65.31;95526.53;5076464;28;20201;-64
2022/01/24 00:10:40;;;;;;;7.68;6.97;;;;;;;-3.23;65.08;95533.53;5075712;28;20199;-64
2022/01/24 00:13:39;;;;;;;7.68;6.97;;;;;;;-3.21;64.83;95532.22;5075735;28;20293;-64
2022/01/24 00:16:15;;;;;;;7.97;7.28;;;;;;;-3.24;65.41;95530.03;5075268;28;20262;-64
2022/01/24 00:26:53;;;;;;;7.47;6.78;;;;;;;-3.30;65.50;95535.66;5076255;28;20183;-63
2022/01/24 00:29:22;;;;;;;7.78;7.18;;;;;;;-3.37;65.81;95543.13;5075951;28;20212;-64
2022/01/24 00:31:48;;;;;;;7.70;7.07;;;;;;;-3.44;66.11;95541.44;5075369;28;20193;-64
2022/01/24 00:34:16;;;;;;;8.15;7.45;;;;;;;-3.46;66.33;95548.97;5076205;28;20205;-64
2022/01/24 00:36:47;;;;;;;8.48;7.78;;;;;;;-3.45;66.23;95534.44;5075544;28;20300;-64
2022/01/24 00:39:14;;;;;;;8.00;7.40;;;;;;;-3.45;66.66;95545.22;5076487;28;20235;-64
2022/01/24 00:41:48;;;;;;;8.73;8.02;;;;;;;-3.45;67.00;95547.91;5076441;28;20186;-64
2022/01/24 00:47:02;;;;;;;9.68;8.88;;;;;;;-3.43;66.68;95548.47;5075313;28;20231;-64
2022/01/24 00:49:47;;;;;;;9.43;8.73;;;;;;;-3.44;66.43;95543.31;5076277;28;20207;-64
2022/01/24 00:55:00;;;;;;;9.00;8.20;;;;;;;-3.44;66.42;95544.13;5074515;28;20204;-64
2022/01/24 00:57:27;;;;;;;8.10;7.50;;;;;;;-3.42;65.88;95552.78;5074841;28;20189;-65
2022/01/24 00:59:54;;;;;;;8.20;7.50;;;;;;;-3.46;66.17;95551.66;5075860;28;20185;-65
2022/01/24 01:02:21;;;;;;;8.82;8.13;;;;;;;-3.43;65.94;95558.44;5075269;28;20195;-65
2022/01/24 01:05:02;;;;;;;7.95;7.35;;;;;;;-3.40;66.13;95552.53;5075516;28;20181;-65
2022/01/24 01:07:37;;;;;;;8.32;7.63;;;;;;;-3.41;66.46;95557.13;5075072;28;20205;-65
2022/01/24 01:18:19;;;;;;;8.00;7.40;;;;;;;-3.32;65.61;95553.97;5074010;28;20193;-64
2022/01/24 01:23:31;;;;;;;7.65;7.05;;;;;;;-3.35;65.72;95541.78;5074020;28;20232;-64
2022/01/24 01:26:01;;;;;;;8.05;7.45;;;;;;;-3.36;65.97;95552.84;5075341;28;20228;-64
2022/01/24 01:28:29;;;;;;;7.97;7.35;;;;;;;-3.37;66.07;95543.13;5074455;28;20207;-64
2022/01/24 01:31:00;;;;;;;8.02;7.43;;;;;;;-3.33;66.51;95555.03;5074972;28;20695;-64
2022/01/24 01:33:36;;;;;;;8.77;8.07;;;;;;;-3.31;66.25;95551.00;5074574;28;20201;-64
2022/01/24 01:36:10;;;;;;;8.38;7.68;;;;;;;-3.31;66.01;95556.41;5074173;28;20569;-64
2022/01/24 01:39:01;;;;;;;8.48;7.78;;;;;;;-3.31;66.06;95544.81;5074902;28;20174;-64
2022/01/24 01:52:45;;;;;;;9.27;8.38;;;;;;;-3.44;66.66;95548.72;5074811;28;20185;-64
2022/01/24 01:55:25;;;;;;;8.73;7.90;;;;;;;-3.44;66.64;95546.84;5074870;28;20223;-64
2022/01/24 01:57:52;;;;;;;8.93;8.13;;;;;;;-3.43;66.02;95542.25;5073923;28;20517;-64
2022/01/24 02:00:19;;;;;;;9.10;8.30;;;;;;;-3.48;66.33;95545.72;5074822;28;20181;-66
2022/01/24 02:02:47;;;;;;;9.60;8.80;;;;;;;-3.51;66.33;95540.00;5073855;28;20647;-65
2022/01/24 02:05:14;;;;;;;9.13;8.40;;;;;;;-3.53;66.18;95548.34;5074515;28;20212;-65
2022/01/24 02:07:47;;;;;;;9.77;8.98;;;;;;;-3.54;66.59;95552.13;5074759;28;20185;-65
2022/01/24 02:10:16;;;;;;;9.50;8.60;;;;;;;-3.55;66.03;95547.78;5074830;28;20277;-65
2022/01/24 02:12:43;;;;;;;9.40;8.57;;;;;;;-3.60;66.49;95549.59;5073904;28;20197;-65
2022/01/24 02:15:12;;;;;;;8.68;8.07;;;;;;;-3.65;66.76;95550.38;5074848;28;20220;-65
2022/01/24 02:17:50;;;;;;;9.18;8.38;;;;;;;-3.65;66.66;95550.38;5075083;28;20200;-65
2022/01/24 02:20:38;;;;;;;9.15;8.45;;;;;;;-3.64;66.83;95544.72;5073836;28;20193;-65
2022/01/24 02:23:35;;;;;;;9.00;8.30;;;;;;;-3.64;67.10;95552.00;5074487;28;20196;-65
2022/01/24 02:26:05;;;;;;;9.43;8.73;;;;;;;-3.63;66.99;95545.56;5074536;28;20185;-65
2022/01/24 02:28:44;;;;;;;9.40;8.60;;;;;;;-3.65;67.17;95550.38;5074782;28;20189;-65
2022/01/24 02:31:25;;;;;;;9.70;8.90;;;;;;;-3.65;66.89;95553.88;5074792;28;20199;-65
2022/01/24 02:33:52;;;;;;;9.65;8.85;;;;;;;-3.61;67.21;95556.06;5074688;28;20277;-65
2022/01/24 02:36:20;;;;;;;10.43;9.43;;;;;;;-3.64;67.16;95560.88;5073707;28;20292;-65
2022/01/24 02:39:01;;;;;;;10.15;9.35;;;;;;;-3.58;66.91;95561.78;5074693;28;20216;-65
2022/01/24 02:49:41;;;;;;;10.30;9.40;;;;;;;-3.59;67.04;95564.75;5073366;28;20197;-65
2022/01/24 02:52:09;;;;;;;10.90;10.00;;;;;;;-3.56;66.62;95565.03;5073349;28;20239;-65
2022/01/24 02:54:39;;;;;;;10.57;9.68;;;;;;;-3.58;66.48;95558.28;5074240;28;20215;-65
2022/01/24 02:57:07;;;;;;;11.05;10.18;;;;;;;-3.67;66.27;95574.06;5074477;28;20193;-65
2022/01/24 02:59:34;;;;;;;10.70;9.88;;;;;;;-3.71;66.36;95578.31;5076879;28;20524;-65
2022/01/24 03:02:01;;;;;;;12.73;11.63;;;;;;;-3.69;66.19;95584.28;5077151;28;20621;-65
2022/01/24 03:04:28;;;;;;;11.20;10.20;;;;;;;-3.71;66.20;95587.22;5077174;28;20207;-65
2022/01/24 03:06:55;;;;;;;11.77;10.82;;;;;;;-3.71;66.25;95589.09;5077076;28;20198;-65
2022/01/24 03:09:23;;;;;;;10.75;9.85;;;;;;;-3.69;66.47;95587.78;5077043;28;20193;-65
2022/01/24 03:12:03;;;;;;;10.77;9.98;;;;;;;-3.64;66.46;95590.53;5077006;28;20288;-65
2022/01/24 03:14:32;;;;;;;10.32;9.52;;;;;;;-3.58;66.21;95593.31;5077870;28;20273;-65
2022/01/24 03:16:59;;;;;;;11.30;10.40;;;;;;;-3.61;66.46;95591.13;5077662;28;20185;-65
2022/01/24 03:19:26;;;;;;;11.25;10.38;;;;;;;-3.64;66.55;95601.31;5076815;28;20201;-65
2022/01/24 03:21:53;;;;;;;12.43;11.43;;;;;;;-3.59;66.53;95594.41;5076871;28;20197;-65
2022/01/24 03:24:20;;;;;;;11.88;10.88;;;;;;;-3.57;66.62;95601.16;5077737;28;20197;-65
2022/01/24 03:26:47;;;;;;;12.50;11.60;;;;;;;-3.59;66.62;95594.41;5077280;28;20509;-66
2022/01/24 03:29:15;;;;;;;12.88;11.77;;;;;;;-3.57;67.11;95597.63;5077539;28;20322;-66
2022/01/24 03:31:45;;;;;;;12.32;11.32;;;;;;;-3.60;66.96;95603.53;5077540;28;20193;-66
2022/01/24 03:34:12;;;;;;;11.07;10.18;;;;;;;-3.59;67.67;95607.88;5076585;28;20246;-65
2022/01/24 03:36:39;;;;;;;11.48;10.55;;;;;;;-3.55;66.88;95600.91;5077550;28;20203;-65
2022/01/24 03:39:06;;;;;;;11.30;10.40;;;;;;;-3.56;66.88;95613.56;5076175;28;20201;-65
2022/01/24 03:41:33;;;;;;;11.48;10.48;;;;;;;-3.56;66.63;95616.25;5076438;28;20200;-66
2022/01/24 03:44:04;;;;;;;10.95;10.13;;;;;;;-3.57;66.51;95616.50;5076743;28;20203;-65
2022/01/24 03:46:47;;;;;;;11.63;10.60;;;;;;;-3.59;66.68;95626.75;5077271;28;20193;-65
2022/01/24 03:49:45;;;;;;;11.82;10.82;;;;;;;-3.56;66.59;95618.13;5076809;28;20193;-65
2022/01/24 03:52:08;;;;;;;12.35;11.35;;;;;;;-3.59;66.58;95626.75;5076078;28;20266;-65
2022/01/24 03:54:35;;;;;;;12.75;11.75;;;;;;;-3.52;66.41;95622.81;5076142;28;20251;-65
2022/01/24 03:57:03;;;;;;;13.05;11.95;;;;;;;-3.50;66.32;95623.34;5076216;28;20197;-67
2022/01/24 03:59:30;;;;;;;13.00;11.90;;;;;;;-3.50;66.69;95625.25;5077052;28;20189;-66
2022/01/24 04:01:59;;;;;;;14.45;13.35;;;;;;;-3.48;66.10;95632.03;5076962;28;20193;-66
2022/01/24 04:04:25;;;;;;;13.20;12.10;;;;;;;-3.53;66.46;95634.63;5076058;28;20201;-67
2022/01/24 04:06:52;;;;;;;14.65;13.40;;;;;;;-3.59;66.46;95641.06;5076813;28;20189;-67
2022/01/24 04:09:19;;;;;;;14.32;13.05;;;;;;;-3.55;66.38;95644.88;5076744;28;20225;-68
2022/01/24 04:11:50;;;;;;;14.40;13.25;;;;;;;-3.57;66.39;95638.91;5076111;28;20197;-67
2022/01/24 04:14:34;;;;;;;14.00;12.80;;;;;;;-3.60;66.53;95649.38;5075935;28;20208;-67
2022/01/24 04:17:19;;;;;;;13.30;12.27;;;;;;;-3.65;66.54;95650.13;5075331;28;20651;-67
2022/01/24 04:22:35;;;;;;;13.20;12.10;;;;;;;-3.71;66.08;95662.72;5075866;28;20201;-66
2022/01/24 04:25:04;;;;;;;12.80;11.70;;;;;;;-3.78;66.45;95663.94;5076174;28;20192;-67
2022/01/24 04:27:31;;;;;;;12.98;11.90;;;;;;;-3.78;66.12;95669.34;5092331;28;20189;-67
2022/01/24 04:29:58;;;;;;;13.35;12.30;;;;;;;-3.81;65.85;95659.06;5075881;28;20205;-68
2022/01/24 04:32:26;;;;;;;14.85;13.68;;;;;;;-3.89;66.19;95679.97;5076492;28;20196;-67
2022/01/24 04:34:53;;;;;;;19.77;18.13;;;;;;;-3.87;65.83;95680.56;5075211;28;20213;-67
2022/01/24 04:37:20;;;;;;;22.33;20.52;;;;;;;-3.91;65.74;95675.91;5075579;28;20193;-67
2022/01/24 04:39:48;;;;;;;27.17;24.77;;;;;;;-3.97;66.17;95683.09;5075715;28;20204;-67
2022/01/24 04:42:22;;;;;;;25.75;23.45;;;;;;;-3.96;65.90;95698.22;5076145;28;20193;-67
2022/01/24 04:45:20;;;;;;;27.73;25.20;;;;;;;-4.00;66.31;95696.25;5076047;28;20321;-67
2022/01/24 04:50:21;;;;;;;40.80;36.45;;;;;;;-3.89;65.52;95698.84;5074661;28;20308;-67
2022/01/24 04:50:43;;;;;;;35.08;31.55;;;;;;;-3.92;65.08;95702.06;5074852;28;20233;-67
2022/01/24 04:53:16;;;;;;;31.48;28.42;;;;;;;-3.89;64.72;95698.84;5092522;28;20287;-67
2022/01/24 04:55:42;;;;;;;26.95;24.42;;;;;;;-3.84;64.58;95700.81;5074647;28;20220;-67
2022/01/24 04:58:09;;;;;;;21.40;19.40;;;;;;;-3.87;64.19;95706.69;5074894;28;20205;-66
2022/01/24 05:00:37;;;;;;;20.63;18.73;;;;;;;-3.85;63.64;95706.44;5075289;28;20197;-67
2022/01/24 05:03:05;;;;;;;20.80;18.83;;;;;;;-3.94;63.71;95701.47;5075839;28;20193;-68
2022/01/24 05:05:32;;;;;;;14.45;13.25;;;;;;;-3.93;63.83;95708.47;5075026;28;20208;-68
2022/01/24 05:08:03;;;;;;;14.45;13.15;;;;;;;-3.96;63.21;95714.38;5074929;28;20211;-66
2022/01/24 05:10:36;;;;;;;12.68;11.50;;;;;;;-3.97;63.54;95720.00;5074387;28;20193;-66
2022/01/24 05:21:35;;;;;;;10.75;9.85;;;;;;;-3.91;61.71;95738.72;5074416;28;20292;-66
2022/01/24 05:24:02;;;;;;;11.27;10.27;;;;;;;-3.84;61.39;95740.44;5074275;28;20193;-65
2022/01/24 05:26:29;;;;;;;11.73;10.73;;;;;;;-3.93;61.61;95753.47;5075427;28;20193;-65
2022/01/24 05:28:55;;;;;;;11.80;10.70;;;;;;;-3.98;62.03;95754.22;5075115;28;20189;-65
2022/01/24 05:31:22;;;;;;;10.88;9.90;;;;;;;-3.97;61.50;95755.03;5074569;28;20204;-66
2022/01/24 05:33:50;;;;;;;11.00;10.00;;;;;;;-3.92;61.06;95769.44;5074635;28;20200;-66
2022/01/24 05:36:17;;;;;;;13.05;11.85;;;;;;;-3.84;60.45;95768.19;5074999;28;20215;-67
2022/01/24 05:38:44;;;;;;;10.65;9.75;;;;;;;-3.81;60.39;95773.09;5074310;28;20207;-65
2022/01/24 05:41:11;;;;;;;10.88;9.88;;;;;;;-3.79;59.86;95781.75;5075657;28;20200;-65
2022/01/24 05:43:38;;;;;;;11.88;10.77;;;;;;;-3.86;60.40;95778.41;5075293;28;20212;-65
2022/01/24 05:46:04;;;;;;;12.95;11.80;;;;;;;-3.80;60.14;95782.00;5074505;28;20193;-65
2022/01/24 05:48:31;;;;;;;13.70;12.38;;;;;;;-3.90;60.67;95775.38;5074047;28;20195;-65
2022/01/24 05:50:59;;;;;;;14.30;13.10;;;;;;;-3.98;60.44;95789.25;5074823;28;20240;-65
2022/01/24 05:53:26;;;;;;;12.38;11.32;;;;;;;-4.02;60.41;95785.41;5075109;28;20197;-65
2022/01/24 05:55:54;;;;;;;12.57;11.38;;;;;;;-4.02;60.34;95793.50;5074187;28;20224;-65
2022/01/24 05:58:21;;;;;;;9.13;8.32;;;;;;;-3.96;58.42;95794.41;5074141;28;20200;-65
2022/01/24 06:00:49;;;;;;;9.00;8.30;;;;;;;-3.81;58.08;95791.13;5075017;28;20191;-65
2022/01/24 06:03:16;;;;;;;7.35;6.75;;;;;;;-3.71;56.94;95797.50;5075033;28;20177;-65
2022/01/24 06:05:43;;;;;;;8.70;7.90;;;;;;;-3.67;57.44;95811.31;5074695;28;20626;-65
2022/01/24 06:08:11;;;;;;;9.63;8.73;;;;;;;-3.57;56.26;95816.06;5075063;28;20189;-65
2022/01/24 06:10:39;;;;;;;8.32;7.53;;;;;;;-3.57;56.84;95822.28;5074638;28;20185;-67
2022/01/24 06:13:06;;;;;;;8.30;7.47;;;;;;;-3.56;56.66;95828.47;5074671;28;20193;-68
2022/01/24 06:15:33;;;;;;;7.80;7.10;;;;;;;-3.57;57.15;95821.47;5073970;28;20216;-68
2022/01/24 06:18:00;;;;;;;8.70;7.80;;;;;;;-3.75;57.08;95831.41;5074188;28;20299;-68
2022/01/24 06:20:27;;;;;;;8.35;7.50;;;;;;;-3.73;56.92;95841.97;5074963;28;20196;-68
2022/01/24 06:22:54;;;;;;;9.45;8.00;;;;;;;-3.64;57.41;95841.31;5074937;28;20192;-67
2022/01/24 06:25:24;;;;;;;10.98;8.60;;;;;;;-3.54;56.93;95842.53;5075088;28;20177;-67
2022/01/24 06:27:51;;;;;;;9.65;8.45;;;;;;;-3.48;56.97;95841.56;5074245;28;20283;-69
2022/01/24 06:30:18;;;;;;;10.40;9.30;;;;;;;-3.55;56.74;95839.03;5074688;28;20605;-68
2022/01/24 06:32:45;;;;;;;11.80;9.80;;;;;;;-3.56;56.87;95842.78;5075087;28;20193;-68
2022/01/24 06:35:13;;;;;;;10.82;9.73;;;;;;;-3.49;57.07;95845.31;5077878;28;20208;-68
2022/01/24 06:37:40;;;;;;;11.25;9.95;;;;;;;-3.49;56.62;95845.31;5077975;28;20200;-68
2022/01/24 06:40:08;;;;;;;10.10;9.10;;;;;;;-3.47;56.07;95852.09;5078057;28;20201;-68
2022/01/24 06:42:38;;;;;;;11.95;10.65;;;;;;;-3.54;56.89;95856.84;5078476;28;20193;-68
2022/01/24 06:45:06;;;;;;;10.40;9.40;;;;;;;-3.52;55.87;95849.34;5077614;28;20246;-68
2022/01/24 06:47:32;;;;;;;11.35;10.15;;;;;;;-3.60;56.37;95855.13;5078509;28;20197;-69
2022/01/24 06:49:59;;;;;;;9.55;8.73;;;;;;;-3.61;56.99;95855.38;5077451;28;20200;-68
2022/01/24 06:52:26;;;;;;;10.52;9.20;;;;;;;-3.64;57.11;95853.97;5077013;28;20748;-70
2022/01/24 06:54:53;;;;;;;11.05;9.95;;;;;;;-3.58;57.34;95857.59;5078148;28;20209;-69
2022/01/24 06:57:20;;;;;;;11.30;10.07;;;;;;;-3.56;57.29;95853.56;5077257;28;20231;-70
2022/01/24 06:59:48;;;;;;;11.77;10.52;;;;;;;-3.50;57.16;95854.47;5077263;28;20205;-70
2022/01/24 07:02:15;;;;;;;10.45;9.50;;;;;;;-3.49;56.22;95858.78;5077397;28;20551;-70
2022/01/24 07:04:43;;;;;;;10.98;9.57;;;;;;;-3.42;56.91;95864.84;5078518;28;20186;-70
2022/01/24 07:07:10;;;;;;;14.77;13.48;;;;;;;-3.42;56.04;95859.44;5078507;28;20189;-69
2022/01/24 07:09:38;;;;;;;16.30;14.82;;;;;;;-3.38;55.98;95865.97;5078493;28;20196;-69
2022/01/24 07:12:06;;;;;;;17.98;16.30;;;;;;;-3.31;55.52;95868.53;5078099;28;20196;-69
2022/01/24 07:14:33;;;;;;;21.85;19.85;;;;;;;-3.29;55.22;95871.81;5077176;28;20185;-69
2022/01/24 07:17:10;;;;;;;26.40;23.80;;;;;;;-3.26;54.89;95876.72;5076943;28;20209;-69
2022/01/24 07:19:36;;;;;;;27.65;24.98;;;;;;;-3.26;55.38;95885.63;5076990;28;20211;-70
2022/01/24 07:22:05;;;;;;;28.00;25.42;;;;;;;-3.27;55.72;95881.28;5077616;28;20177;-70
2022/01/24 07:24:33;;;;;;;28.33;25.70;;;;;;;-3.15;56.19;95884.72;5078251;28;20191;-69
2022/01/24 07:27:00;;;;;;;31.23;28.27;;;;;;;-3.06;55.57;95885.09;5078116;28;20181;-69
2022/01/24 07:29:27;;;;;;;22.25;20.27;;;;;;;-3.04;55.04;95882.16;5077512;28;20185;-69
2022/01/24 07:31:54;;;;;;;16.30;14.80;;;;;;;-3.04;54.35;95896.47;5077561;28;20520;-69
2022/01/24 07:34:22;;;;;;;12.05;10.98;;;;;;;-3.09;54.44;95890.97;5077463;28;20204;-69
2022/01/24 07:36:50;;;;;;;11.68;10.68;;;;;;;-3.08;54.93;95889.94;5076720;28;20216;-69
2022/01/24 07:39:17;;;;;;;12.38;11.27;;;;;;;-3.01;54.97;95895.19;5078093;28;20189;-69
2022/01/24 07:41:45;;;;;;;19.00;17.38;;;;;;;-3.04;55.11;95901.88;5077424;28;20200;-69
2022/01/24 07:44:13;;;;;;;20.65;18.70;;;;;;;-3.10;55.10;95913.66;5076904;28;20181;-69
2022/01/24 07:46:40;;;;;;;27.60;25.00;;;;;;;-3.09;55.36;95909.06;5077398;28;20185;-69
2022/01/24 07:49:10;;;;;;;16.85;15.25;;;;;;;-3.21;55.65;95922.66;5076360;28;20204;-69
2022/01/24 07:51:40;;;;;;;16.10;14.70;;;;;;;-3.22;55.60;95916.44;5075775;28;20428;-69
2022/01/24 07:54:08;;;;;;;14.93;13.68;;;;;;;-3.31;56.18;95927.88;5076941;28;20181;-69
2022/01/24 07:56:35;;;;;;;14.27;13.18;;;;;;;-3.35;56.79;95926.72;5075937;28;20221;-69
2022/01/24 07:59:02;;;;;;;13.25;12.15;;;;;;;-3.30;57.00;95929.53;5076969;28;20583;-68
2022/01/24 08:01:29;;;;;;;10.68;9.88;;;;;;;-3.29;56.49;95937.38;5077162;28;20185;-68
2022/01/24 08:03:56;;;;;;;12.80;11.75;;;;;;;-3.29;56.64;95939.25;5076514;28;20201;-68
2022/01/24 08:06:22;;;;;;;12.55;11.45;;;;;;;-3.29;56.95;95947.34;5076916;28;20615;-68
2022/01/24 08:08:51;;;;;;;12.43;11.43;;;;;;;-3.31;56.72;95941.38;5076117;28;20215;-68
2022/01/24 08:11:19;;;;;;;15.55;14.20;;;;;;;-3.33;57.46;95938.91;5076274;28;20201;-69
2022/01/24 08:13:45;;;;;;;16.77;15.27;;;;;;;-3.34;57.34;95937.28;5075974;28;20205;-69
2022/01/24 08:16:13;;;;;;;23.10;20.77;;;;;;;-3.24;57.93;95940.13;5076831;28;20217;-69
2022/01/24 08:18:40;;;;;;;27.67;25.08;;;;;;;-3.19;58.37;95945.63;5076275;28;20605;-68
2022/01/24 08:21:07;;;;;;;28.85;26.15;;;;;;;-3.10;57.88;95956.00;5076598;28;20208;-69
2022/01/24 08:23:34;;;;;;;29.85;26.92;;;;;;;-3.18;57.83;95958.06;5076771;28;20185;-69
2022/01/24 08:26:02;;;;;;;27.90;25.25;;;;;;;-3.18;57.78;95957.25;5076606;28;20189;-68
2022/01/24 08:28:29;;;;;;;24.20;21.85;;;;;;;-3.21;57.87;95966.63;5076333;28;20193;-69
2022/01/24 08:30:56;;;;;;;17.92;16.33;;;;;;;-3.17;58.08;95966.97;5076671;28;20197;-68
2022/01/24 08:33:23;;;;;;;16.67;15.02;;;;;;;-3.17;58.01;95965.09;5076671;28;20610;-69
2022/01/24 08:35:51;;;;;;;15.27;14.07;;;;;;;-3.17;58.18;95980.47;5075633;28;20439;-69
2022/01/24 08:38:18;;;;;;;11.85;10.85;;;;;;;-3.02;57.77;95985.28;5075711;28;20242;-69
2022/01/24 08:40:47;;;;;;;10.00;9.10;;;;;;;-2.97;56.99;95978.09;5075516;28;20204;-68
2022/01/24 08:43:23;;;;;;;9.82;9.02;;;;;;;-2.86;56.55;95983.69;5075709;28;20186;-68
2022/01/24 08:45:53;;;;;;;9.75;8.95;;;;;;;-2.86;56.95;95978.28;5076408;28;20280;-69
2022/01/24 08:48:22;;;;;;;12.10;11.25;;;;;;;-2.81;56.82;95981.84;5076159;28;20215;-69
2022/01/24 08:50:51;;;;;;;10.90;10.10;;;;;;;-2.76;56.23;95973.84;5075305;28;20241;-68
2022/01/24 08:53:18;;;;;;;11.07;10.15;;;;;;;-2.74;56.57;95981.69;5076179;28;20182;-69
2022/01/24 08:55:47;;;;;;;13.88;12.60;;;;;;;-2.76;56.58;95981.09;5074276;28;20197;-69
2022/01/24 08:58:15;;;;;;;23.60;21.40;;;;;;;-2.70;55.79;95989.03;5076079;28;20272;-69
2022/01/24 09:00:43;;;;;;;10.90;10.00;;;;;;;-2.90;54.42;95986.06;5075106;28;20205;-69
2022/01/24 09:03:11;;;;;;;9.15;8.45;;;;;;;-2.94;54.75;95985.72;5075787;28;20242;-69
2022/01/24 09:05:38;;;;;;;9.30;8.60;;;;;;;-2.85;54.35;95988.81;5075741;28;20181;-69
2022/01/24 09:08:06;;;;;;;9.43;8.63;;;;;;;-2.80;54.39;95991.59;5075777;28;20196;-68
2022/01/24 09:10:33;;;;;;;9.07;8.38;;;;;;;-2.93;53.95;95998.16;5074642;28;20530;-68
2022/01/24 09:13:01;;;;;;;9.15;8.45;;;;;;;-2.97;54.53;95998.88;5075626;28;20680;-69
2022/01/24 09:15:29;;;;;;;7.75;7.15;;;;;;;-3.24;54.49;95987.88;5075670;28;20220;-68
2022/01/24 09:17:56;;;;;;;8.98;8.27;;;;;;;-3.16;54.57;95984.78;5075747;28;20264;-68
2022/01/24 09:20:23;;;;;;;16.17;14.77;;;;;;;-2.93;55.19;95992.75;5074895;28;20292;-68
2022/01/24 09:22:51;;;;;;;24.48;22.25;;;;;;;-2.85;55.55;96002.31;5074630;28;20593;-68
2022/01/24 09:25:19;;;;;;;29.42;26.63;;;;;;;-2.75;56.26;95998.97;5074287;28;20228;-69
2022/01/24 09:27:47;;;;;;;23.80;21.45;;;;;;;-2.71;56.05;95997.41;5074553;28;20189;-69
2022/01/24 09:30:16;;;;;;;20.75;18.88;;;;;;;-2.70;55.48;96009.84;5074767;28;20633;-69
2022/01/24 09:32:45;;;;;;;24.58;22.27;;;;;;;-2.64;55.99;95991.84;5075108;28;20203;-69
2022/01/24 09:35:13;;;;;;;24.33;22.05;;;;;;;-2.56;56.25;95991.41;5075614;28;20259;-69
2022/01/24 09:37:42;;;;;;;24.60;22.40;;;;;;;-2.49;56.37;95987.47;5074593;28;20221;-69
2022/01/24 09:40:13;;;;;;;25.25;22.95;;;;;;;-2.35;55.56;95990.66;5075235;28;20184;-68
2022/01/24 09:42:40;;;;;;;26.73;24.30;;;;;;;-2.03;55.54;95987.28;5075398;28;20185;-68
2022/01/24 09:45:10;;;;;;;19.70;17.90;;;;;;;-1.82;55.04;95982.94;5075101;28;20188;-73
2022/01/24 09:47:38;;;;;;;20.48;18.58;;;;;;;-1.74;54.23;95982.50;5075748;28;20182;-72
2022/01/24 09:50:08;;;;;;;24.10;21.90;;;;;;;-1.77;53.54;95986.53;5074126;28;20193;-68
2022/01/24 09:52:35;;;;;;;22.17;20.27;;;;;;;-1.80;53.02;95988.91;5074010;28;20606;-68
2022/01/24 09:55:02;;;;;;;20.98;19.17;;;;;;;-1.91;51.73;95990.69;5074689;28;20185;-68
2022/01/24 09:57:30;;;;;;;15.93;14.43;;;;;;;-2.09;51.74;95991.00;5074061;28;20655;-68
2022/01/24 09:59:57;;;;;;;12.85;11.80;;;;;;;-2.19;51.50;95984.38;5074785;28;20185;-68
2022/01/24 10:02:24;;;;;;;13.95;12.85;;;;;;;-2.08;51.29;95987.22;5074796;28;20193;-67
2022/01/24 10:04:51;;;;;;;14.20;13.00;;;;;;;-1.79;51.53;95985.13;5074019;28;20196;-67
2022/01/24 10:07:19;;;;;;;18.10;16.60;;;;;;;-1.82;50.08;95983.75;5075336;28;20196;-74
2022/01/24 10:09:50;;;;;;;10.02;9.23;;;;;;;-1.76;48.30;95980.03;5079170;28;20204;-73
2022/01/24 10:12:29;;;;;;;9.40;8.60;;;;;;;-1.71;48.16;95971.16;5079109;28;20244;-71
2022/01/24 10:17:43;;;;;;;14.43;13.13;;;;;;;-1.51;49.65;95970.59;5079112;28;20201;-76
2022/01/24 10:20:22;;;;;;;14.27;13.05;;;;;;;-1.46;49.25;95974.13;5078432;28;20296;-75
2022/01/24 10:23:08;;;;;;;10.85;9.95;;;;;;;-1.68;47.22;95972.56;5079198;28;20191;-75
2022/01/24 10:25:47;;;;;;;10.07;9.25;;;;;;;-1.61;48.42;95976.69;5079322;28;20189;-72
2022/01/24 10:28:22;;;;;;;10.38;9.57;;;;;;;-1.73;48.61;95968.72;5079230;28;20188;-72
2022/01/24 10:31:02;;;;;;;14.43;13.23;;;;;;;-1.95;49.01;95968.75;5079257;28;20197;-71
2022/01/24 10:33:28;;;;;;;18.83;17.02;;;;;;;-1.72;49.99;95977.66;5078912;28;20181;-72
2022/01/24 10:35:55;;;;;;;20.83;18.92;;;;;;;-1.42;49.41;95974.44;5078560;28;20189;-72
2022/01/24 10:38:29;;;;;;;21.02;19.02;;;;;;;-1.23;48.92;95969.50;5077858;28;20263;-70
2022/01/24 10:41:08;;;;;;;18.58;16.88;;;;;;;-0.83;48.49;95965.53;5077390;28;20243;-71
2022/01/24 10:43:37;;;;;;;17.00;15.48;;;;;;;-0.45;47.61;95975.28;5077462;28;20199;-67
2022/01/24 10:46:05;;;;;;;14.00;12.73;;;;;;;-0.30;45.97;95978.06;5078856;28;20196;-67
2022/01/24 10:48:34;;;;;;;16.98;15.48;;;;;;;-0.27;45.69;95968.59;5078649;28;20185;-67
2022/01/24 10:51:06;;;;;;;16.02;14.63;;;;;;;-0.04;46.44;95976.34;5079243;28;20229;-67
2022/01/24 10:53:40;;;;;;;13.38;12.23;;;;;;;0.12;45.26;95979.94;5078918;28;20197;-67
2022/01/24 10:56:30;;;;;;;21.52;19.38;;;;;;;-0.03;45.40;95977.16;5077463;28;20205;-67
2022/01/24 10:59:06;;;;;;;21.08;19.17;;;;;;;-0.48;44.88;95983.91;5078082;28;20178;-67
2022/01/24 11:01:33;;;;;;;9.95;9.10;;;;;;;-1.40;45.10;95985.84;5077924;28;20219;-67
2022/01/24 11:04:01;;;;;;;9.38;8.57;;;;;;;-1.88;46.19;95978.56;5078030;28;20181;-67
2022/01/24 11:06:29;;;;;;;10.85;10.05;;;;;;;-1.86;45.88;95969.09;5077035;28;20597;-66
2022/01/24 11:09:14;;;;;;;10.93;9.98;;;;;;;-2.00;46.54;95975.94;5077222;28;20197;-67
2022/01/24 11:11:41;;;;;;;9.70;8.90;;;;;;;-1.96;46.02;95971.72;5078175;28;20186;-67
2022/01/24 11:14:09;;;;;;;11.55;10.55;;;;;;;-1.95;44.07;95982.25;5078064;28;20208;-67
2022/01/24 11:16:38;;;;;;;11.82;10.68;;;;;;;-2.39;44.83;95970.59;5077921;28;20208;-67
2022/01/24 11:19:11;;;;;;;10.40;9.50;;;;;;;-2.17;45.11;95972.50;5077339;28;20189;-67
2022/01/24 11:21:39;;;;;;;15.07;13.52;;;;;;;-1.67;43.82;95966.91;5078029;28;20185;-67
2022/01/24 11:24:08;;;;;;;15.68;13.82;;;;;;;-1.83;43.12;95968.59;5078077;28;20211;-67
2022/01/24 11:26:36;;;;;;;13.70;12.50;;;;;;;-1.68;43.08;95977.97;5078018;28;20268;-67
2022/01/24 11:29:03;;;;;;;13.45;12.25;;;;;;;-1.83;42.16;95973.19;5076568;28;20201;-67
2022/01/24 11:31:38;;;;;;;12.63;11.55;;;;;;;-1.76;42.92;95971.13;5077521;28;20191;-67
2022/01/24 11:34:09;;;;;;;8.85;8.15;;;;;;;-1.64;42.44;95971.78;5076689;28;20210;-67
2022/01/24 11:36:38;;;;;;;10.52;9.52;;;;;;;-1.07;41.93;95965.03;5077717;28;20200;-67
2022/01/24 11:39:05;;;;;;;7.75;7.15;;;;;;;-1.38;42.93;95966.63;5076571;28;20209;-67
2022/01/24 11:41:34;;;;;;;10.27;9.27;;;;;;;-1.77;42.24;95964.91;5076799;28;20204;-67
2022/01/24 11:44:09;;;;;;;9.10;8.30;;;;;;;-1.53;41.98;95972.72;5077441;28;20571;-67
2022/01/24 11:46:43;;;;;;;10.95;10.05;;;;;;;-0.86;41.65;95976.88;5076770;28;20197;-67
2022/01/24 11:49:12;;;;;;;8.13;7.53;;;;;;;-0.88;41.46;95970.88;5077712;28;20184;-67
2022/01/24 11:51:40;;;;;;;7.30;6.70;;;;;;;-1.72;42.07;95975.75;5076493;28;20236;-67
2022/01/24 11:54:31;;;;;;;10.60;9.70;;;;;;;-2.02;43.73;95983.50;5077158;28;20195;-67
2022/01/24 11:57:34;;;;;;;9.50;8.70;;;;;;;-2.15;45.16;95978.47;5077466;28;20197;-72
2022/01/24 12:00:24;;;;;;;10.07;9.27;;;;;;;-2.12;46.79;95977.97;5019146;28;20213;-67
2022/01/24 12:02:52;;;;;;;10.13;9.32;;;;;;;-2.56;47.10;95986.84;5018897;28;20301;-70
2022/01/24 12:05:21;;;;;;;9.93;9.18;;;;;;;-2.58;48.02;95986.25;5019154;28;20301;-69
2022/01/24 12:07:50;;;;;;;14.68;13.38;;;;;;;-2.46;48.40;95986.16;5018910;28;20201;-70
2022/01/24 12:10:38;;;;;;;15.13;13.73;;;;;;;-2.11;48.71;95985.00;5035562;28;20202;-72
2022/01/24 12:13:05;;;;;;;13.50;12.30;;;;;;;-1.98;48.08;95988.16;5035246;28;20216;-70
2022/01/24 12:15:59;;;;;;;14.43;13.05;;;;;;;-1.96;48.88;95991.44;5018701;28;20199;-72
2022/01/24 12:18:53;;;;;;;21.98;19.88;;;;;;;-1.66;48.74;95981.25;5018602;28;20289;-67
2022/01/24 12:21:24;;;;;;;19.25;17.35;;;;;;;-1.77;48.18;95983.00;5035078;28;20194;-66
2022/01/24 12:23:52;;;;;;;12.73;11.63;;;;;;;-1.86;46.67;95979.09;5034923;28;20213;-66
2022/01/24 12:26:28;;;;;;;11.43;10.63;;;;;;;-2.50;47.14;95988.53;5035086;28;20204;-70
2022/01/24 12:29:00;;;;;;;7.88;7.28;;;;;;;-3.25;48.61;95991.66;5018262;28;20236;-69
2022/01/24 12:31:31;;;;;;;8.35;7.65;;;;;;;-3.88;50.72;95996.16;5064176;28;20213;-67
2022/01/24 12:34:08;;;;;;;8.10;7.50;;;;;;;-3.87;51.33;95993.22;5075747;28;20193;-72
2022/01/24 12:37:00;;;;;;;7.97;7.32;;;;;;;-3.92;51.18;96003.91;5075728;28;20211;-70